Time;durP1;ratioP1;P1;durP2;ratioP2;P2;SDS_P1;SDS_P2;PMS_P1;PMS_P2;Temp;Humidity;BMP_temperature;BMP_pressure;BME280_temperature;BME280_humidity;BME280_pressure;Samples;Min_cycle;Max_cycle;Signal;HPM_P1;HPM_P2
2023/02/02 00:00:54;;;;;;;25.38;3.38;;;6.10;99.90;;;;;;5112824;28;20174;-76
2023/02/02 00:03:20;;;;;;;30.75;3.65;;;6.00;99.90;;;;;;5112944;27;20200;-76
2023/02/02 00:05:48;;;;;;;27.38;4.15;;;6.00;99.90;;;;;;5121900;27;20176;-80
2023/02/02 00:08:18;;;;;;;28.20;3.92;;;6.00;99.90;;;;;;5115140;27;20192;-76
2023/02/02 00:10:44;;;;;;;38.33;4.32;;;5.90;99.90;;;;;;5131977;27;20183;-76
2023/02/02 00:13:12;;;;;;;29.10;3.85;;;5.90;99.90;;;;;;5129267;27;20259;-77
2023/02/02 00:15:38;;;;;;;29.63;3.80;;;5.90;99.90;;;;;;5120738;27;20525;-75
2023/02/02 00:18:04;;;;;;;26.25;3.70;;;5.90;99.90;;;;;;5126688;27;20239;-78
2023/02/02 00:20:33;;;;;;;30.77;3.85;;;5.80;99.90;;;;;;5131073;27;20192;-77
2023/02/02 00:22:59;;;;;;;33.35;4.07;;;5.80;99.90;;;;;;5131187;27;20199;-78
2023/02/02 00:25:25;;;;;;;40.20;3.88;;;5.80;99.90;;;;;;5131183;27;20523;-75
2023/02/02 00:27:51;;;;;;;31.75;4.35;;;5.80;99.90;;;;;;5112235;28;20195;-74
2023/02/02 00:30:17;;;;;;;30.20;3.72;;;5.80;99.90;;;;;;5130963;27;20267;-75
2023/02/02 00:32:43;;;;;;;31.33;4.05;;;5.80;99.90;;;;;;5131875;27;20176;-77
2023/02/02 00:35:09;;;;;;;29.30;4.03;;;5.80;99.90;;;;;;5122858;27;20196;-77
2023/02/02 00:37:35;;;;;;;32.22;4.60;;;5.80;99.90;;;;;;5124429;27;20188;-76
2023/02/02 00:40:01;;;;;;;34.88;4.50;;;5.80;99.90;;;;;;5126870;28;20292;-78
2023/02/02 00:42:27;;;;;;;26.02;3.45;;;5.80;99.90;;;;;;5112403;28;20186;-81
2023/02/02 00:47:36;;;;;;;29.50;4.40;;;5.80;99.90;;;;;;5136175;27;20179;-77
2023/02/02 00:50:03;;;;;;;36.28;4.05;;;5.80;99.90;;;;;;5126859;27;20636;-77
2023/02/02 00:52:29;;;;;;;35.25;4.25;;;5.80;99.90;;;;;;5114734;27;20587;-77
2023/02/02 00:54:54;;;;;;;37.28;4.20;;;5.80;99.90;;;;;;5121103;27;20177;-77
2023/02/02 00:57:21;;;;;;;36.40;4.10;;;5.80;99.90;;;;;;5116487;27;20612;-76
2023/02/02 00:59:46;;;;;;;35.08;4.25;;;5.80;99.90;;;;;;5130197;27;20176;-77
2023/02/02 01:02:12;;;;;;;42.88;4.47;;;5.80;99.90;;;;;;5134412;27;20273;-77
2023/02/02 01:04:38;;;;;;;37.70;4.63;;;5.80;99.90;;;;;;5132294;27;20256;-77
2023/02/02 01:07:04;;;;;;;37.95;4.00;;;5.80;99.90;;;;;;5115887;27;20189;-76
2023/02/02 01:09:30;;;;;;;41.20;4.45;;;5.90;99.90;;;;;;5131187;27;20171;-77
2023/02/02 01:11:56;;;;;;;27.63;4.20;;;5.90;99.90;;;;;;5136962;27;20202;-77
2023/02/02 01:14:24;;;;;;;28.02;4.65;;;5.90;99.90;;;;;;5123303;27;20177;-76
2023/02/02 01:16:50;;;;;;;34.42;4.25;;;5.90;99.90;;;;;;5121020;27;20271;-77
2023/02/02 01:19:16;;;;;;;42.88;4.47;;;5.90;99.90;;;;;;5127104;27;20695;-77
2023/02/02 01:21:42;;;;;;;35.13;4.15;;;5.90;99.90;;;;;;5129134;27;20626;-75
2023/02/02 01:24:08;;;;;;;33.28;4.72;;;6.00;99.90;;;;;;5126034;27;20522;-75
2023/02/02 01:26:35;;;;;;;33.78;4.20;;;6.00;99.90;;;;;;5116250;27;20201;-75
2023/02/02 01:29:01;;;;;;;47.20;5.07;;;6.00;99.90;;;;;;5124720;27;20181;-75
2023/02/02 01:31:26;;;;;;;29.70;4.32;;;6.00;99.90;;;;;;5127787;27;20276;-77
2023/02/02 01:33:52;;;;;;;32.45;4.47;;;6.00;99.90;;;;;;5133354;27;20175;-75
2023/02/02 01:36:20;;;;;;;33.55;4.35;;;6.00;99.90;;;;;;5136525;27;20575;-75
2023/02/02 01:38:47;;;;;;;28.88;4.15;;;6.00;99.90;;;;;;5135073;27;20256;-76
2023/02/02 01:41:23;;;;;;;38.05;4.28;;;6.00;99.90;;;;;;5134884;27;20298;-77
2023/02/02 01:43:57;;;;;;;34.47;3.97;;;6.10;99.90;;;;;;5125949;27;20261;-75
2023/02/02 01:46:27;;;;;;;31.05;4.65;;;6.10;99.90;;;;;;5124146;27;20228;-75
2023/02/02 01:49:01;;;;;;;28.83;3.95;;;6.10;99.90;;;;;;5127673;27;20212;-75
2023/02/02 01:51:39;;;;;;;39.70;4.28;;;6.10;99.90;;;;;;5114123;28;20737;-75
2023/02/02 01:54:07;;;;;;;32.05;4.60;;;6.10;99.90;;;;;;5114778;27;20177;-74
2023/02/02 01:56:40;;;;;;;41.15;4.30;;;6.20;99.90;;;;;;5119879;27;20173;-77
2023/02/02 01:59:06;;;;;;;34.22;3.85;;;6.10;99.90;;;;;;5132515;27;20192;-76
2023/02/02 02:01:32;;;;;;;38.53;4.75;;;6.10;99.90;;;;;;5134712;27;20172;-77
2023/02/02 02:03:58;;;;;;;37.22;4.97;;;6.20;99.90;;;;;;5128024;27;20204;-77
2023/02/02 02:06:26;;;;;;;40.33;4.70;;;6.20;99.90;;;;;;5114267;27;20212;-77
2023/02/02 02:08:59;;;;;;;31.55;4.57;;;6.20;99.90;;;;;;5133795;27;20180;-76
2023/02/02 02:11:26;;;;;;;36.05;4.07;;;6.20;99.90;;;;;;5135809;27;20156;-77
2023/02/02 02:16:54;;;;;;;40.20;4.43;;;6.20;99.90;;;;;;5116611;27;20230;-77
2023/02/02 02:26:49;;;;;;;30.80;4.25;;;6.20;99.90;;;;;;5135817;27;20596;-77
2023/02/02 02:29:49;;;;;;;34.03;4.22;;;6.20;99.90;;;;;;5132978;27;20208;-77
2023/02/02 02:32:26;;;;;;;35.40;3.80;;;6.30;99.90;;;;;;5128539;27;20646;-78
2023/02/02 02:35:04;;;;;;;31.40;4.18;;;6.30;99.90;;;;;;5128061;27;20256;-78
2023/02/02 02:37:38;;;;;;;31.08;3.90;;;6.20;99.90;;;;;;5133764;27;20191;-81
2023/02/02 02:40:20;;;;;;;30.67;3.42;;;6.30;99.90;;;;;;5116096;27;20688;-77
2023/02/02 02:42:54;;;;;;;28.58;4.28;;;6.30;99.90;;;;;;5121886;27;20601;-80
2023/02/02 02:45:23;;;;;;;41.50;4.50;;;6.30;99.90;;;;;;5122549;27;20234;-75
2023/02/02 02:47:51;;;;;;;33.92;4.15;;;6.30;99.90;;;;;;5121172;27;20172;-75
2023/02/02 02:50:17;;;;;;;34.33;4.18;;;6.30;99.90;;;;;;5128019;27;20184;-75
2023/02/02 02:52:45;;;;;;;32.38;4.43;;;6.40;99.90;;;;;;5112464;28;20173;-75
2023/02/02 02:55:12;;;;;;;29.27;3.97;;;6.40;99.90;;;;;;5129977;27;20191;-75
2023/02/02 02:58:25;;;;;;;31.55;4.53;;;6.40;99.90;;;;;;5118062;27;20189;-76
2023/02/02 03:01:05;;;;;;;36.33;4.60;;;6.40;99.90;;;;;;5079753;27;20189;-74
2023/02/02 03:04:12;;;;;;;33.42;3.97;;;6.40;99.90;;;;;;5122527;27;20192;-75
2023/02/02 03:07:01;;;;;;;35.03;4.32;;;6.40;99.90;;;;;;5114294;27;21904;-75
2023/02/02 03:09:36;;;;;;;39.88;4.68;;;6.50;99.90;;;;;;5131928;27;20180;-75
2023/02/02 03:12:02;;;;;;;45.33;4.55;;;6.50;99.90;;;;;;5133234;27;20208;-75
2023/02/02 03:14:27;;;;;;;28.02;4.70;;;6.50;99.90;;;;;;5131267;27;20604;-75
2023/02/02 03:16:53;;;;;;;48.70;5.93;;;6.60;99.90;;;;;;5125463;27;20235;-76
2023/02/02 03:19:20;;;;;;;38.42;5.95;;;6.60;99.90;;;;;;5123596;27;20188;-75
2023/02/02 03:21:45;;;;;;;50.35;6.35;;;6.60;99.90;;;;;;5133396;27;20222;-75
2023/02/02 03:24:11;;;;;;;33.13;5.97;;;6.60;99.90;;;;;;5132159;27;20200;-75
2023/02/02 03:26:37;;;;;;;37.70;4.82;;;6.60;99.90;;;;;;5134059;27;20271;-76
2023/02/02 03:29:03;;;;;;;35.38;4.75;;;6.60;99.90;;;;;;5131157;27;20180;-76
2023/02/02 03:31:29;;;;;;;33.53;3.95;;;6.70;99.90;;;;;;5133504;27;20187;-75
2023/02/02 03:33:55;;;;;;;32.35;3.88;;;6.70;99.90;;;;;;5118956;27;20184;-80
2023/02/02 03:36:21;;;;;;;29.60;4.28;;;6.70;99.90;;;;;;5115016;27;20185;-75
2023/02/02 03:38:47;;;;;;;27.52;4.18;;;6.70;99.90;;;;;;5113398;27;20177;-75
2023/02/02 03:41:14;;;;;;;37.13;3.97;;;6.80;99.90;;;;;;5113582;28;20178;-75
2023/02/02 03:43:39;;;;;;;33.38;4.10;;;6.80;99.90;;;;;;5117622;27;20211;-75
2023/02/02 03:46:05;;;;;;;28.52;4.43;;;6.80;99.90;;;;;;5133645;27;20542;-75
2023/02/02 03:48:35;;;;;;;31.58;3.80;;;6.80;99.90;;;;;;5128923;27;20269;-76
2023/02/02 03:51:11;;;;;;;29.73;3.47;;;6.80;99.90;;;;;;5094993;28;20494;-75
2023/02/02 03:53:39;;;;;;;26.25;3.50;;;6.80;99.90;;;;;;5115982;27;20264;-75
2023/02/02 03:56:05;;;;;;;26.10;3.45;;;6.90;99.90;;;;;;5133098;27;20192;-75
2023/02/02 03:58:31;;;;;;;29.75;3.55;;;6.90;99.90;;;;;;5132183;27;20184;-76
2023/02/02 04:01:05;;;;;;;15.23;2.55;;;6.90;99.90;;;;;;5115316;27;20183;-75
2023/02/02 04:03:31;;;;;;;22.58;3.13;;;6.90;99.90;;;;;;5116322;27;20204;-76
2023/02/02 04:05:57;;;;;;;20.00;2.65;;;6.90;99.90;;;;;;5118905;27;20181;-75
2023/02/02 04:08:23;;;;;;;11.77;2.17;;;6.90;99.90;;;;;;5113739;27;20249;-75
2023/02/02 04:10:49;;;;;;;10.38;1.60;;;6.90;99.90;;;;;;5125514;27;20180;-77
2023/02/02 04:13:15;;;;;;;11.57;1.75;;;6.90;99.90;;;;;;5131868;27;20499;-77
2023/02/02 04:15:40;;;;;;;5.40;1.63;;;6.90;99.90;;;;;;5133486;27;20169;-81
2023/02/02 04:18:06;;;;;;;4.57;1.00;;;6.90;99.90;;;;;;5116253;27;20221;-78
2023/02/02 04:20:32;;;;;;;13.25;1.10;;;6.90;99.90;;;;;;5116094;27;20662;-75
2023/02/02 04:22:58;;;;;;;8.73;1.20;;;6.90;99.90;;;;;;5112067;27;20185;-80
2023/02/02 04:25:24;;;;;;;5.07;1.10;;;6.90;99.90;;;;;;5130907;27;20192;-77
2023/02/02 04:27:49;;;;;;;3.38;0.90;;;6.80;99.90;;;;;;5121919;27;20169;-75
2023/02/02 04:30:16;;;;;;;7.07;1.25;;;6.80;99.90;;;;;;5120521;27;20185;-75
2023/02/02 04:32:41;;;;;;;6.82;1.30;;;6.80;99.90;;;;;;5124056;27;20271;-74
2023/02/02 04:35:07;;;;;;;8.35;1.40;;;6.80;99.90;;;;;;5132726;27;20268;-75
2023/02/02 04:37:33;;;;;;;5.18;1.10;;;6.80;99.90;;;;;;5110095;28;20208;-76
2023/02/02 04:39:59;;;;;;;5.90;1.17;;;6.80;99.90;;;;;;5128137;27;20207;-77
2023/02/02 04:42:25;;;;;;;6.60;1.10;;;6.80;99.90;;;;;;5127648;27;20188;-76
2023/02/02 04:44:51;;;;;;;5.13;1.20;;;6.80;99.90;;;;;;5130487;27;20204;-84
2023/02/02 04:47:16;;;;;;;10.07;1.23;;;6.80;99.90;;;;;;5130634;28;20629;-75
2023/02/02 04:49:42;;;;;;;11.77;1.45;;;6.80;99.90;;;;;;5132492;28;20620;-76
2023/02/02 04:52:10;;;;;;;9.82;1.70;;;6.80;99.90;;;;;;5124964;27;20196;-75
2023/02/02 04:54:36;;;;;;;6.85;1.35;;;6.80;99.90;;;;;;5112771;28;20181;-75
2023/02/02 04:57:01;;;;;;;7.65;1.40;;;6.80;99.90;;;;;;5116794;28;20664;-74
2023/02/02 04:59:28;;;;;;;8.63;1.42;;;6.80;99.90;;;;;;5121357;28;20242;-75
2023/02/02 05:01:58;;;;;;;8.93;1.50;;;6.80;99.90;;;;;;5111719;28;20182;-75
2023/02/02 05:04:24;;;;;;;8.88;1.85;;;6.80;99.90;;;;;;5111681;28;20205;-77
2023/02/02 05:06:50;;;;;;;5.68;1.10;;;6.80;99.90;;;;;;5131479;28;20176;-76
2023/02/02 05:09:16;;;;;;;7.60;1.20;;;6.80;99.90;;;;;;5130207;27;20217;-75
2023/02/02 05:11:43;;;;;;;7.72;1.45;;;6.70;99.90;;;;;;5130877;28;20202;-75
2023/02/02 05:14:10;;;;;;;5.80;1.42;;;6.70;99.90;;;;;;5121991;27;20193;-76
2023/02/02 05:16:36;;;;;;;11.93;1.70;;;6.70;99.90;;;;;;5115671;28;20173;-75
2023/02/02 05:19:03;;;;;;;8.73;1.52;;;6.70;99.90;;;;;;5123228;27;20266;-75
2023/02/02 05:21:29;;;;;;;11.23;1.63;;;6.70;99.90;;;;;;5117394;28;20204;-75
2023/02/02 05:23:55;;;;;;;8.38;1.58;;;6.70;99.90;;;;;;5128152;28;20239;-76
2023/02/02 05:26:23;;;;;;;9.02;1.63;;;6.70;99.90;;;;;;5127648;27;20178;-76
2023/02/02 05:28:49;;;;;;;7.47;1.20;;;6.70;99.90;;;;;;5112987;28;20250;-76
2023/02/02 05:31:15;;;;;;;6.18;1.30;;;6.70;99.90;;;;;;5110995;28;20185;-77
2023/02/02 05:33:41;;;;;;;7.25;1.63;;;6.70;99.90;;;;;;5114305;27;20222;-76
2023/02/02 05:36:07;;;;;;;12.93;1.30;;;6.70;99.90;;;;;;5116690;27;20178;-77
2023/02/02 05:38:33;;;;;;;11.13;1.52;;;6.70;99.90;;;;;;5128958;27;20204;-76
2023/02/02 05:40:59;;;;;;;7.45;1.40;;;6.60;99.90;;;;;;5115834;28;20230;-76
2023/02/02 05:43:29;;;;;;;11.40;1.50;;;6.60;99.90;;;;;;5114932;27;20212;-79
2023/02/02 05:45:55;;;;;;;7.95;1.75;;;6.60;99.90;;;;;;5116171;27;20238;-76
2023/02/02 05:48:21;;;;;;;8.52;1.45;;;6.60;99.90;;;;;;5116345;27;20522;-76
2023/02/02 05:50:56;;;;;;;7.78;1.45;;;6.60;99.90;;;;;;5134018;27;20667;-76
2023/02/02 05:53:22;;;;;;;7.80;1.50;;;6.60;99.90;;;;;;5126042;27;21067;-77
2023/02/02 05:55:47;;;;;;;9.65;1.80;;;6.60;99.90;;;;;;5135199;27;20225;-76
2023/02/02 05:58:13;;;;;;;8.65;1.58;;;6.60;99.90;;;;;;5133649;27;20659;-76
2023/02/02 06:00:39;;;;;;;9.45;1.50;;;6.60;99.90;;;;;;5130337;27;20227;-75
2023/02/02 06:03:05;;;;;;;11.85;1.52;;;6.60;99.90;;;;;;5122434;27;20205;-76
2023/02/02 06:05:30;;;;;;;8.63;1.55;;;6.60;99.90;;;;;;5117691;27;20624;-79
2023/02/02 06:07:56;;;;;;;7.22;1.67;;;6.60;99.90;;;;;;5119879;27;20182;-78
2023/02/02 06:10:22;;;;;;;10.35;1.63;;;6.60;99.90;;;;;;5119849;27;20636;-75
2023/02/02 06:12:48;;;;;;;6.30;1.30;;;6.60;99.90;;;;;;5135514;27;20230;-75
2023/02/02 06:15:14;;;;;;;3.90;1.35;;;6.60;99.90;;;;;;5134317;27;20204;-74
2023/02/02 06:17:39;;;;;;;8.38;1.50;;;6.60;99.90;;;;;;5118868;27;20599;-75
2023/02/02 06:20:05;;;;;;;8.00;1.73;;;6.60;99.90;;;;;;5133842;27;20554;-75
2023/02/02 06:22:31;;;;;;;6.25;1.55;;;6.60;99.90;;;;;;5117240;27;20176;-76
2023/02/02 06:24:57;;;;;;;7.25;1.20;;;6.60;99.90;;;;;;5116790;27;20257;-78
2023/02/02 06:27:23;;;;;;;9.55;1.48;;;6.60;99.90;;;;;;5130264;27;20708;-74
2023/02/02 06:29:49;;;;;;;11.38;1.63;;;6.60;99.90;;;;;;5130527;27;20184;-76
2023/02/02 06:32:15;;;;;;;7.13;1.42;;;6.60;99.90;;;;;;5134723;27;20180;-75
2023/02/02 06:34:40;;;;;;;8.85;1.50;;;6.50;99.90;;;;;;5134049;27;20556;-75
2023/02/02 06:37:06;;;;;;;5.93;1.30;;;6.60;99.90;;;;;;5126810;27;20625;-78
2023/02/02 06:39:32;;;;;;;8.02;1.60;;;6.50;99.90;;;;;;5128863;27;20180;-75
2023/02/02 06:41:58;;;;;;;9.90;1.90;;;6.50;99.90;;;;;;5119554;27;20189;-75
2023/02/02 06:44:24;;;;;;;10.85;2.13;;;6.50;99.90;;;;;;5124703;27;20208;-75
2023/02/02 06:46:49;;;;;;;10.73;1.92;;;6.60;99.90;;;;;;5116432;27;20203;-76
2023/02/02 06:49:15;;;;;;;6.72;1.70;;;6.50;99.90;;;;;;5130078;27;20185;-75
2023/02/02 06:51:41;;;;;;;8.52;1.88;;;6.50;99.90;;;;;;5136026;27;20208;-75
2023/02/02 06:54:07;;;;;;;15.88;2.35;;;6.50;99.90;;;;;;5130225;27;20238;-76
2023/02/02 06:56:32;;;;;;;9.10;1.92;;;6.50;99.90;;;;;;5134904;27;20200;-77
2023/02/02 06:58:58;;;;;;;8.40;1.75;;;6.50;99.90;;;;;;5135145;27;20195;-83
2023/02/02 07:01:24;;;;;;;12.20;2.55;;;6.50;99.90;;;;;;5116099;27;20185;-76
2023/02/02 07:03:50;;;;;;;21.70;3.67;;;6.60;99.90;;;;;;5132984;27;20208;-75
2023/02/02 07:06:21;;;;;;;9.07;2.58;;;6.60;99.90;;;;;;5117992;27;20254;-75
2023/02/02 07:08:48;;;;;;;10.23;2.17;;;6.60;99.90;;;;;;5120290;27;20173;-75
2023/02/02 07:11:15;;;;;;;7.47;1.77;;;6.60;99.90;;;;;;5129976;27;20762;-76
2023/02/02 07:13:40;;;;;;;7.05;1.80;;;6.60;99.90;;;;;;5116073;27;20180;-76
2023/02/02 07:16:11;;;;;;;9.38;1.80;;;6.50;99.90;;;;;;5127651;27;20185;-76
2023/02/02 07:18:38;;;;;;;9.32;1.73;;;6.60;99.90;;;;;;5120171;27;20221;-78
2023/02/02 07:21:05;;;;;;;10.57;1.92;;;6.50;99.90;;;;;;5116572;27;20245;-76
2023/02/02 07:23:32;;;;;;;5.80;1.52;;;6.60;99.90;;;;;;5127207;27;20233;-76
2023/02/02 07:26:06;;;;;;;6.85;1.58;;;6.60;99.90;;;;;;5146466;27;20172;-75
2023/02/02 07:28:33;;;;;;;7.13;1.70;;;6.50;99.90;;;;;;5132468;27;20184;-76
2023/02/02 07:30:59;;;;;;;8.25;1.75;;;6.60;99.90;;;;;;5134348;27;20241;-82
2023/02/02 07:33:25;;;;;;;8.20;1.70;;;6.60;99.90;;;;;;5132530;27;20752;-77
2023/02/02 07:35:51;;;;;;;7.60;1.52;;;6.60;99.90;;;;;;5117505;27;20181;-76
2023/02/02 07:38:18;;;;;;;7.93;1.80;;;6.60;99.90;;;;;;5117977;27;20192;-76
2023/02/02 07:40:44;;;;;;;9.95;2.00;;;6.60;99.90;;;;;;5113613;27;20185;-76
2023/02/02 07:43:11;;;;;;;8.38;1.77;;;6.60;99.90;;;;;;5114233;27;20185;-76
2023/02/02 07:45:37;;;;;;;5.38;1.77;;;6.60;99.90;;;;;;5134940;27;20198;-76
2023/02/02 07:48:02;;;;;;;6.30;1.50;;;6.60;99.90;;;;;;5100749;27;20177;-75
2023/02/02 07:50:29;;;;;;;7.53;1.73;;;6.60;99.90;;;;;;5129857;27;20363;-77
2023/02/02 07:52:57;;;;;;;8.63;1.80;;;6.60;99.90;;;;;;5128707;27;20177;-78
2023/02/02 07:55:23;;;;;;;8.80;1.60;;;6.60;99.90;;;;;;5113597;27;20645;-76
2023/02/02 07:57:51;;;;;;;5.30;1.70;;;6.60;99.90;;;;;;5112263;28;20192;-75
2023/02/02 08:00:17;;;;;;;6.18;1.60;;;6.60;99.90;;;;;;5124876;27;20241;-75
2023/02/02 08:02:43;;;;;;;6.00;2.00;;;6.60;99.90;;;;;;5129570;27;20234;-76
2023/02/02 08:05:09;;;;;;;6.53;2.00;;;6.60;99.90;;;;;;5123092;27;20279;-75
2023/02/02 08:07:34;;;;;;;5.53;1.88;;;6.60;99.90;;;;;;5132849;27;20181;-75
2023/02/02 08:10:00;;;;;;;10.65;2.20;;;6.70;99.90;;;;;;5132303;27;20181;-75
2023/02/02 08:12:27;;;;;;;7.10;1.98;;;6.60;99.90;;;;;;5133572;27;20188;-76
2023/02/02 08:14:53;;;;;;;10.20;2.20;;;6.70;99.90;;;;;;5120053;27;20278;-77
2023/02/02 08:17:18;;;;;;;10.15;2.10;;;6.70;99.90;;;;;;5127117;27;20631;-75
2023/02/02 08:19:44;;;;;;;4.97;1.77;;;6.70;99.90;;;;;;5123716;27;20181;-75
2023/02/02 08:22:10;;;;;;;3.45;1.40;;;6.80;99.90;;;;;;5120525;27;20189;-75
2023/02/02 08:24:39;;;;;;;6.53;1.80;;;6.70;99.90;;;;;;5128716;27;20239;-75
2023/02/02 08:27:09;;;;;;;7.43;1.90;;;6.70;99.90;;;;;;5119579;27;20515;-75
2023/02/02 08:29:36;;;;;;;8.00;1.83;;;6.80;99.90;;;;;;5130552;27;20221;-76
2023/02/02 08:32:03;;;;;;;5.80;1.70;;;6.80;99.90;;;;;;5123865;27;20321;-75
2023/02/02 08:34:28;;;;;;;6.82;1.60;;;6.80;99.90;;;;;;5119909;27;20216;-77
2023/02/02 08:36:54;;;;;;;6.28;1.80;;;6.80;99.90;;;;;;5120658;28;20208;-76
2023/02/02 08:39:20;;;;;;;10.38;2.03;;;6.80;99.90;;;;;;5122072;27;20601;-75
2023/02/02 08:41:46;;;;;;;5.82;2.08;;;6.80;99.90;;;;;;5117944;27;20621;-77
2023/02/02 08:44:13;;;;;;;7.38;2.45;;;6.80;99.90;;;;;;5128367;28;20716;-77
2023/02/02 08:46:40;;;;;;;7.05;2.08;;;6.80;99.90;;;;;;5116923;27;20177;-77
2023/02/02 08:49:08;;;;;;;7.85;2.00;;;6.90;99.90;;;;;;5122300;28;20196;-77
2023/02/02 08:51:34;;;;;;;5.18;1.80;;;6.90;99.90;;;;;;5133995;27;20175;-75
2023/02/02 08:54:00;;;;;;;4.45;1.63;;;6.90;99.90;;;;;;5123040;27;20264;-79
2023/02/02 08:56:26;;;;;;;4.65;1.50;;;6.90;99.90;;;;;;5133134;27;20184;-76
2023/02/02 08:58:54;;;;;;;6.82;1.75;;;6.90;99.90;;;;;;5134379;28;20650;-76
2023/02/02 09:01:25;;;;;;;5.30;1.75;;;7.00;99.90;;;;;;5126694;27;20192;-77
2023/02/02 09:03:56;;;;;;;5.05;1.80;;;7.00;99.90;;;;;;5122257;28;20479;-76
2023/02/02 09:06:26;;;;;;;6.57;1.92;;;7.00;99.90;;;;;;5116266;28;20268;-76
2023/02/02 09:08:52;;;;;;;5.57;1.52;;;7.00;99.90;;;;;;5120685;27;20180;-75
2023/02/02 09:11:19;;;;;;;5.53;1.80;;;7.10;99.90;;;;;;5137623;27;20169;-76
2023/02/02 09:13:50;;;;;;;4.63;1.75;;;7.20;99.90;;;;;;5134476;27;20181;-78
2023/02/02 09:16:17;;;;;;;4.30;1.85;;;7.20;99.90;;;;;;5129044;27;20585;-75
2023/02/02 09:18:44;;;;;;;5.47;1.75;;;7.30;99.90;;;;;;5122241;27;20219;-75
2023/02/02 09:21:12;;;;;;;5.07;2.10;;;7.30;99.90;;;;;;5136281;27;20192;-75
2023/02/02 09:23:40;;;;;;;3.20;1.90;;;7.30;99.90;;;;;;5130176;27;20198;-75
2023/02/02 09:26:17;;;;;;;7.22;1.95;;;7.40;99.90;;;;;;5116768;27;20177;-75
2023/02/02 09:28:46;;;;;;;6.00;2.40;;;7.40;99.90;;;;;;5121016;27;20184;-76
2023/02/02 09:31:12;;;;;;;5.00;1.70;;;7.40;99.90;;;;;;5136013;27;20703;-77
2023/02/02 09:33:38;;;;;;;4.72;2.00;;;7.40;99.90;;;;;;5134581;27;20180;-75
2023/02/02 09:36:09;;;;;;;5.13;2.05;;;7.40;99.90;;;;;;5137400;27;20194;-75
2023/02/02 09:38:35;;;;;;;6.40;1.75;;;7.50;99.90;;;;;;5131014;27;20608;-75
2023/02/02 09:41:30;;;;;;;6.05;2.22;;;7.50;99.90;;;;;;5126872;27;20230;-76
2023/02/02 09:44:20;;;;;;;5.68;1.80;;;7.50;99.90;;;;;;5124048;27;20205;-75
2023/02/02 09:47:02;;;;;;;6.82;2.38;;;7.50;99.90;;;;;;5137115;27;20164;-76
2023/02/02 09:49:43;;;;;;;4.25;2.08;;;7.50;99.90;;;;;;5133965;27;20175;-75
2023/02/02 09:52:23;;;;;;;4.80;1.75;;;7.50;99.90;;;;;;5136741;27;20562;-75
2023/02/02 09:54:53;;;;;;;4.93;1.90;;;7.50;99.90;;;;;;5129738;27;20700;-76
2023/02/02 09:57:24;;;;;;;6.13;2.00;;;7.60;99.90;;;;;;5123384;27;20184;-75
2023/02/02 09:59:52;;;;;;;6.63;1.90;;;7.60;99.90;;;;;;5126779;27;20177;-76
2023/02/02 10:02:29;;;;;;;7.38;1.85;;;7.70;99.90;;;;;;5135376;27;20200;-76
2023/02/02 10:05:04;;;;;;;5.53;1.70;;;7.70;99.90;;;;;;5120076;27;20235;-76
2023/02/02 10:07:37;;;;;;;5.65;1.88;;;7.70;99.90;;;;;;5115808;28;20156;-76
2023/02/02 10:10:16;;;;;;;5.97;1.70;;;7.80;99.90;;;;;;5115878;27;20215;-76
2023/02/02 10:12:55;;;;;;;5.90;1.73;;;7.80;99.90;;;;;;5129067;27;20173;-76
2023/02/02 10:15:32;;;;;;;4.63;2.38;;;7.80;99.90;;;;;;5134787;27;20179;-76
2023/02/02 10:18:03;;;;;;;7.72;2.10;;;7.80;99.90;;;;;;5102024;28;20299;-80
2023/02/02 10:20:52;;;;;;;4.07;1.33;;;7.80;99.90;;;;;;5132358;27;20238;-77
2023/02/02 10:23:18;;;;;;;7.47;1.83;;;7.90;99.90;;;;;;5128589;27;20187;-78
2023/02/02 10:26:00;;;;;;;7.25;1.90;;;7.90;99.90;;;;;;5136527;27;20169;-75
2023/02/02 10:28:35;;;;;;;7.70;2.15;;;7.90;99.90;;;;;;5130203;27;20173;-76
2023/02/02 10:31:01;;;;;;;9.63;1.95;;;8.00;99.90;;;;;;5115855;27;20194;-75
2023/02/02 10:33:39;;;;;;;8.18;2.03;;;8.00;99.90;;;;;;5132852;27;20268;-77
2023/02/02 10:36:20;;;;;;;5.85;1.98;;;8.00;99.90;;;;;;5134694;27;20176;-76
2023/02/02 10:39:11;;;;;;;7.93;1.92;;;8.00;99.90;;;;;;5134577;27;20188;-75
2023/02/02 10:41:46;;;;;;;7.10;2.40;;;8.00;99.90;;;;;;5132248;27;20313;-75
2023/02/02 10:44:35;;;;;;;5.10;2.17;;;8.00;99.90;;;;;;5123548;27;20238;-77
2023/02/02 10:47:05;;;;;;;4.97;1.98;;;8.00;99.90;;;;;;5134156;27;20228;-75
2023/02/02 10:49:39;;;;;;;7.22;2.10;;;7.90;99.90;;;;;;5122516;27;20242;-75
2023/02/02 10:52:14;;;;;;;5.40;1.80;;;7.90;99.90;;;;;;5117745;27;20176;-80
2023/02/02 10:54:52;;;;;;;8.98;2.03;;;7.90;99.90;;;;;;5125717;27;20172;-75
2023/02/02 10:57:36;;;;;;;8.80;2.28;;;7.90;99.90;;;;;;5132101;27;20219;-77
2023/02/02 11:00:24;;;;;;;13.75;2.33;;;7.90;99.90;;;;;;5125071;27;20268;-76
2023/02/02 11:02:51;;;;;;;6.93;2.35;;;7.90;99.90;;;;;;5114005;27;20177;-75
2023/02/02 11:08:38;;;;;;;4.47;1.88;;;8.00;99.90;;;;;;5115471;27;20208;-75
2023/02/02 11:11:17;;;;;;;7.15;2.28;;;8.00;99.90;;;;;;5113835;27;20621;-75
2023/02/02 11:14:02;;;;;;;8.05;2.20;;;8.00;99.90;;;;;;5130323;27;20176;-76
2023/02/02 11:16:34;;;;;;;7.07;2.00;;;8.00;99.90;;;;;;5120201;27;20180;-76
2023/02/02 11:19:00;;;;;;;7.05;2.03;;;8.00;99.90;;;;;;5122855;27;20220;-75
2023/02/02 11:21:31;;;;;;;6.90;2.00;;;8.00;99.90;;;;;;5116498;27;20197;-74
2023/02/02 11:24:19;;;;;;;10.70;2.40;;;8.00;99.90;;;;;;5119300;27;20275;-74
2023/02/02 11:26:50;;;;;;;7.82;1.98;;;8.00;99.90;;;;;;5114845;27;20177;-75
2023/02/02 11:29:20;;;;;;;8.95;1.83;;;8.00;99.90;;;;;;5123966;27;20177;-76
2023/02/02 11:31:46;;;;;;;10.35;2.08;;;8.00;99.90;;;;;;5113116;27;20181;-74
2023/02/02 11:34:24;;;;;;;7.38;1.73;;;8.00;99.90;;;;;;5123853;27;20181;-75
2023/02/02 11:37:12;;;;;;;12.02;2.42;;;8.00;99.90;;;;;;5132777;27;20177;-75
2023/02/02 11:39:42;;;;;;;9.10;2.20;;;8.00;99.90;;;;;;5114022;28;20653;-76
2023/02/02 11:42:19;;;;;;;9.15;2.10;;;8.00;99.90;;;;;;5112958;28;20161;-76
2023/02/02 11:44:50;;;;;;;7.10;2.47;;;8.10;99.90;;;;;;5114962;27;20628;-75
2023/02/02 11:47:31;;;;;;;10.13;2.80;;;8.10;99.90;;;;;;5124719;27;20176;-76
2023/02/02 11:50:00;;;;;;;9.05;2.50;;;8.10;99.90;;;;;;5117022;27;20215;-76
2023/02/02 11:52:29;;;;;;;8.88;2.70;;;8.10;99.90;;;;;;5112805;28;20173;-80
2023/02/02 11:55:13;;;;;;;11.43;2.90;;;8.10;99.90;;;;;;5124032;27;20636;-82
2023/02/02 11:57:39;;;;;;;5.93;2.35;;;8.20;99.90;;;;;;5115702;27;20173;-76
2023/02/02 12:00:07;;;;;;;14.02;3.15;;;8.10;99.90;;;;;;5122459;27;20475;-75
2023/02/02 12:02:33;;;;;;;7.45;2.40;;;8.20;99.90;;;;;;5112123;27;20209;-76
2023/02/02 12:05:14;;;;;;;10.98;2.50;;;8.20;99.90;;;;;;5125053;27;20232;-77
2023/02/02 12:07:42;;;;;;;5.53;2.35;;;8.20;99.90;;;;;;5124107;27;20172;-75
2023/02/02 12:10:35;;;;;;;7.28;2.55;;;8.20;99.90;;;;;;5126957;27;20177;-75
2023/02/02 12:13:15;;;;;;;5.03;1.65;;;8.10;99.90;;;;;;5123222;27;20583;-76
2023/02/02 12:15:59;;;;;;;5.50;1.70;;;8.20;99.90;;;;;;5113713;28;20166;-75
2023/02/02 12:18:34;;;;;;;7.40;2.17;;;8.20;99.90;;;;;;5123581;27;20211;-76
2023/02/02 12:21:10;;;;;;;8.35;2.13;;;8.20;99.90;;;;;;5120085;27;20191;-76
2023/02/02 12:23:47;;;;;;;7.75;1.80;;;8.20;99.90;;;;;;5132254;27;20259;-76
2023/02/02 12:26:29;;;;;;;7.93;2.35;;;8.20;99.90;;;;;;5129753;27;20212;-77
2023/02/02 12:29:21;;;;;;;9.40;1.85;;;8.20;99.90;;;;;;5131064;27;20172;-75
2023/02/02 12:31:56;;;;;;;7.50;1.73;;;8.20;99.90;;;;;;5093695;28;20669;-76
2023/02/02 12:34:46;;;;;;;5.07;1.50;;;8.20;99.90;;;;;;5112052;27;20615;-76
2023/02/02 12:37:15;;;;;;;4.88;1.58;;;8.20;99.90;;;;;;5122727;27;20262;-75
2023/02/02 12:40:02;;;;;;;5.63;1.85;;;8.20;99.90;;;;;;5126824;27;20180;-77
2023/02/02 12:42:55;;;;;;;7.10;1.75;;;8.20;99.90;;;;;;5132517;27;20173;-84
2023/02/02 12:45:53;;;;;;;7.65;2.22;;;8.20;99.90;;;;;;5112086;28;20217;-76
2023/02/02 12:48:53;;;;;;;10.70;2.33;;;8.20;99.90;;;;;;5113155;28;20625;-76
2023/02/02 12:51:37;;;;;;;7.00;2.35;;;8.20;99.90;;;;;;5121268;28;20259;-76
2023/02/02 12:54:36;;;;;;;8.90;2.03;;;8.20;99.90;;;;;;5124981;28;20820;-76
2023/02/02 12:57:25;;;;;;;7.03;1.90;;;8.20;99.90;;;;;;5117232;28;20576;-76
2023/02/02 13:00:12;;;;;;;8.93;1.92;;;8.10;99.90;;;;;;5114381;28;20196;-75
2023/02/02 13:03:03;;;;;;;7.80;1.83;;;8.10;99.90;;;;;;5119261;27;20185;-75
2023/02/02 13:05:43;;;;;;;6.82;1.92;;;8.10;99.90;;;;;;5114634;28;20205;-74
2023/02/02 13:08:14;;;;;;;6.80;1.73;;;8.10;99.90;;;;;;5115731;28;20180;-76
2023/02/02 13:10:43;;;;;;;7.28;2.08;;;8.10;99.90;;;;;;5129661;27;20613;-75
2023/02/02 13:13:22;;;;;;;5.78;1.73;;;8.10;99.90;;;;;;5112976;28;20184;-75
2023/02/02 13:15:54;;;;;;;7.50;1.70;;;8.10;99.90;;;;;;5133199;27;20309;-76
2023/02/02 13:18:26;;;;;;;9.55;2.10;;;8.10;99.90;;;;;;5125357;28;20311;-76
2023/02/02 13:21:00;;;;;;;10.98;2.28;;;8.00;99.90;;;;;;5120310;28;20645;-77
2023/02/02 13:23:27;;;;;;;7.70;2.33;;;8.00;99.90;;;;;;5131324;27;20868;-75
2023/02/02 13:26:06;;;;;;;8.93;2.20;;;8.00;99.90;;;;;;5131442;27;20229;-75